Time;durP1;ratioP1;P1;durP2;ratioP2;P2;SDS_P1;SDS_P2;PMS_P1;PMS_P2;Temp;Humidity;BMP_temperature;BMP_pressure;BME280_temperature;BME280_humidity;BME280_pressure;Samples;Min_cycle;Max_cycle;Signal;HPM_P1;HPM_P2
2020/12/10 00:01:07;;;;;;;1.75;1.42;;;3.10;97.90;;;;;;4102729;28;20451;-87
2020/12/10 00:03:09;;;;;;;2.42;1.48;;;3.10;97.80;;;;;;4112710;28;20499;-86
2020/12/10 00:05:11;;;;;;;5.15;2.80;;;3.10;97.80;;;;;;4121273;28;20494;-86
2020/12/10 00:07:12;;;;;;;3.85;2.15;;;3.10;97.90;;;;;;4113099;28;20054;-87
2020/12/10 00:09:14;;;;;;;4.03;1.85;;;3.10;97.90;;;;;;4086111;29;20503;-87
2020/12/10 00:11:15;;;;;;;4.88;0.98;;;3.00;98.10;;;;;;4097213;28;20071;-87
2020/12/10 00:13:16;;;;;;;5.57;2.38;;;3.00;98.30;;;;;;4102821;28;20051;-86
2020/12/10 00:15:17;;;;;;;1.17;1.08;;;3.00;98.00;;;;;;4100944;28;20430;-87
2020/12/10 00:17:23;;;;;;;0.60;0.60;;;3.00;98.10;;;;;;4101444;28;20031;-91
2020/12/10 00:19:24;;;;;;;1.30;1.20;;;3.00;98.20;;;;;;4104552;28;20044;-87
2020/12/10 00:21:25;;;;;;;8.10;1.42;;;3.00;98.20;;;;;;4093128;29;20040;-86
2020/12/10 00:23:27;;;;;;;1.33;0.98;;;3.00;98.40;;;;;;4109567;28;20080;-86
2020/12/10 00:25:28;;;;;;;5.13;1.85;;;2.90;98.40;;;;;;4115896;28;20046;-86
2020/12/10 00:27:30;;;;;;;2.47;1.75;;;3.00;98.30;;;;;;4082299;28;20059;-86
2020/12/10 00:29:31;;;;;;;3.22;1.27;;;3.00;98.00;;;;;;4084861;29;20500;-87
2020/12/10 00:31:33;;;;;;;1.92;1.20;;;3.00;98.00;;;;;;4071770;28;20091;-87
2020/12/10 00:33:35;;;;;;;2.42;2.25;;;2.90;98.20;;;;;;4072301;29;20759;-87
2020/12/10 00:35:36;;;;;;;1.20;1.10;;;2.90;97.80;;;;;;4112539;28;20050;-87
2020/12/10 00:37:38;;;;;;;4.13;1.15;;;2.90;97.70;;;;;;4089722;29;20055;-87
2020/12/10 00:39:39;;;;;;;2.33;2.10;;;2.90;98.10;;;;;;4103644;28;20078;-87
2020/12/10 00:41:40;;;;;;;1.58;1.48;;;2.80;98.10;;;;;;4084851;29;20155;-86
2020/12/10 00:43:42;;;;;;;1.98;1.75;;;2.80;98.00;;;;;;4100237;28;20048;-87
2020/12/10 00:45:43;;;;;;;2.88;1.20;;;2.90;97.90;;;;;;4085676;28;20416;-87
2020/12/10 00:47:44;;;;;;;4.80;1.83;;;2.80;97.80;;;;;;4084303;29;20043;-86
2020/12/10 00:49:46;;;;;;;3.35;2.35;;;2.80;98.10;;;;;;4100844;28;20055;-86
2020/12/10 00:51:50;;;;;;;2.05;1.63;;;2.80;98.10;;;;;;4083794;28;20055;-86
2020/12/10 00:53:52;;;;;;;1.23;1.17;;;2.70;98.60;;;;;;4095802;28;20134;-86
2020/12/10 00:55:56;;;;;;;2.40;2.15;;;2.70;98.20;;;;;;4116222;28;20051;-87
2020/12/10 00:57:58;;;;;;;2.78;2.40;;;2.80;98.00;;;;;;4101419;28;20082;-86
2020/12/10 00:59:59;;;;;;;3.38;2.63;;;2.80;97.80;;;;;;4076810;29;20052;-87
2020/12/10 01:02:00;;;;;;;1.98;1.75;;;2.80;97.70;;;;;;4092303;29;20570;-87
2020/12/10 01:04:02;;;;;;;3.70;2.03;;;2.80;97.90;;;;;;4084860;29;20087;-86
2020/12/10 01:06:03;;;;;;;1.17;0.70;;;2.80;98.30;;;;;;4091595;29;20089;-87
2020/12/10 01:08:04;;;;;;;1.70;1.20;;;2.80;98.30;;;;;;4106527;28;20053;-86
2020/12/10 01:10:06;;;;;;;3.42;2.22;;;2.80;98.20;;;;;;4116341;28;20474;-87
2020/12/10 01:12:07;;;;;;;2.53;1.50;;;2.80;97.90;;;;;;4110559;28;20061;-86
2020/12/10 01:14:09;;;;;;;1.48;1.38;;;2.90;98.00;;;;;;4126498;28;20058;-86
2020/12/10 01:16:10;;;;;;;3.10;2.17;;;2.90;98.00;;;;;;4102411;28;20146;-86
2020/12/10 01:18:11;;;;;;;2.90;1.67;;;2.90;97.90;;;;;;4104816;28;20059;-86
2020/12/10 01:20:13;;;;;;;5.30;3.42;;;2.90;98.00;;;;;;4098076;28;20043;-86
2020/12/10 01:22:14;;;;;;;1.95;1.65;;;2.80;98.50;;;;;;4084965;28;20135;-86
2020/12/10 01:24:15;;;;;;;2.67;1.38;;;2.70;98.70;;;;;;4101734;28;20126;-86
2020/12/10 01:26:17;;;;;;;3.65;3.00;;;2.70;98.50;;;;;;4091256;29;20047;-86
2020/12/10 01:28:37;;;;;;;2.88;1.48;;;2.70;98.20;;;;;;4071759;29;20051;-86
2020/12/10 01:30:38;;;;;;;2.88;2.28;;;2.80;98.30;;;;;;4087238;29;20059;-86
2020/12/10 01:32:40;;;;;;;2.72;2.53;;;2.70;98.60;;;;;;4081975;29;20074;-85
2020/12/10 01:34:41;;;;;;;3.38;3.00;;;2.70;98.50;;;;;;4105401;28;20046;-86
2020/12/10 01:36:43;;;;;;;1.27;1.17;;;2.70;98.20;;;;;;4086965;28;20432;-86
2020/12/10 01:38:44;;;;;;;1.17;1.02;;;2.80;98.10;;;;;;4099252;28;20051;-86
2020/12/10 01:40:50;;;;;;;1.08;0.98;;;2.70;98.40;;;;;;4097169;29;20059;-86
2020/12/10 01:42:51;;;;;;;1.45;1.40;;;2.60;98.60;;;;;;4100984;28;20065;-88
2020/12/10 01:44:52;;;;;;;2.47;1.88;;;2.60;98.60;;;;;;4115049;28;20047;-86
2020/12/10 01:46:54;;;;;;;1.45;1.38;;;2.60;98.70;;;;;;4088249;28;20059;-86
2020/12/10 01:48:55;;;;;;;1.30;1.20;;;2.60;98.40;;;;;;4116169;28;20090;-87
2020/12/10 01:50:57;;;;;;;4.05;1.92;;;2.70;98.30;;;;;;4091120;28;20420;-86
2020/12/10 01:52:58;;;;;;;2.30;1.30;;;2.70;98.20;;;;;;4074931;29;20074;-87
2020/12/10 01:54:59;;;;;;;2.97;1.65;;;2.70;98.20;;;;;;4099247;29;20047;-87
2020/12/10 01:57:03;;;;;;;3.88;1.70;;;2.70;98.10;;;;;;4089086;28;20134;-86
2020/12/10 01:59:05;;;;;;;5.25;2.53;;;2.70;98.10;;;;;;4091058;28;20051;-87
2020/12/10 02:01:06;;;;;;;3.08;1.70;;;2.80;98.10;;;;;;4085135;29;20059;-86
2020/12/10 02:03:08;;;;;;;1.75;1.20;;;2.70;98.00;;;;;;4072519;29;20131;-87
2020/12/10 02:05:09;;;;;;;1.25;1.15;;;2.70;98.30;;;;;;4093444;28;20051;-87
2020/12/10 02:07:10;;;;;;;4.13;2.08;;;2.70;97.80;;;;;;4086072;29;20059;-85
2020/12/10 02:09:11;;;;;;;0.75;0.75;;;2.80;97.70;;;;;;4098300;28;20511;-85
2020/12/10 02:11:13;;;;;;;3.80;2.20;;;2.70;97.70;;;;;;4074796;28;20063;-87
2020/12/10 02:13:14;;;;;;;2.10;1.30;;;2.80;97.60;;;;;;4083855;29;20056;-86
2020/12/10 02:15:17;;;;;;;3.60;2.03;;;2.80;97.70;;;;;;4084277;29;20062;-87
2020/12/10 02:17:18;;;;;;;1.58;1.48;;;2.80;97.60;;;;;;4098935;28;20058;-86
2020/12/10 02:19:19;;;;;;;1.30;1.20;;;2.80;97.70;;;;;;4099186;28;20103;-87
2020/12/10 02:21:21;;;;;;;5.72;1.95;;;2.70;97.70;;;;;;4072057;29;20067;-86
2020/12/10 02:23:22;;;;;;;2.80;2.58;;;2.70;97.70;;;;;;4091301;29;20503;-86
2020/12/10 02:25:24;;;;;;;0.95;0.93;;;2.60;98.00;;;;;;4082909;29;20047;-86
2020/12/10 02:27:25;;;;;;;2.22;1.70;;;2.50;98.20;;;;;;4088244;29;20139;-86
2020/12/10 02:29:26;;;;;;;6.40;1.40;;;2.50;98.20;;;;;;4094980;28;20129;-87
2020/12/10 02:31:30;;;;;;;5.22;2.58;;;2.50;98.30;;;;;;4086889;28;20146;-86
2020/12/10 02:33:34;;;;;;;1.85;1.50;;;2.50;98.20;;;;;;4099592;28;20091;-87
2020/12/10 02:35:36;;;;;;;2.38;1.38;;;2.50;98.10;;;;;;4077538;29;20066;-86
2020/12/10 02:37:37;;;;;;;3.65;2.50;;;2.50;98.20;;;;;;4101874;28;20051;-87
2020/12/10 02:39:38;;;;;;;5.38;2.25;;;2.50;98.00;;;;;;4113277;28;20106;-87
2020/12/10 02:41:40;;;;;;;6.15;1.55;;;2.40;98.10;;;;;;4114250;28;20051;-87
2020/12/10 02:43:42;;;;;;;2.10;1.90;;;2.40;98.00;;;;;;4098351;28;20051;-86
2020/12/10 02:45:43;;;;;;;6.43;1.95;;;2.40;98.20;;;;;;4099552;29;20059;-87
2020/12/10 02:47:45;;;;;;;2.92;2.33;;;2.40;98.20;;;;;;4099060;28;20510;-87
2020/12/10 02:49:46;;;;;;;2.58;0.93;;;2.30;98.40;;;;;;4098834;28;20058;-86
2020/12/10 02:51:47;;;;;;;3.53;3.22;;;2.30;98.30;;;;;;4069494;29;20139;-87
2020/12/10 02:53:48;;;;;;;1.35;1.25;;;2.30;98.30;;;;;;4089059;28;20062;-86
2020/12/10 02:55:50;;;;;;;1.77;1.10;;;2.40;98.10;;;;;;4074721;29;20066;-86
2020/12/10 02:57:51;;;;;;;2.47;2.28;;;2.40;97.90;;;;;;4098690;28;20466;-87
2020/12/10 02:59:53;;;;;;;8.48;1.92;;;2.30;97.90;;;;;;4075510;29;20060;-86
2020/12/10 03:01:54;;;;;;;4.95;2.25;;;2.40;97.80;;;;;;4100943;28;20047;-86
2020/12/10 03:03:55;;;;;;;4.70;2.28;;;2.30;97.90;;;;;;4099088;28;20423;-87
2020/12/10 03:05:57;;;;;;;1.67;1.58;;;2.20;98.20;;;;;;4095601;29;20061;-87
2020/12/10 03:07:58;;;;;;;3.47;2.05;;;2.10;98.20;;;;;;4108649;28;20061;-86
2020/12/10 03:10:00;;;;;;;2.47;1.40;;;2.00;98.30;;;;;;4067817;29;20056;-87
2020/12/10 03:12:01;;;;;;;1.15;0.95;;;2.00;98.30;;;;;;4098063;29;20138;-87
2020/12/10 03:14:02;;;;;;;1.25;0.90;;;1.90;98.20;;;;;;4110483;28;20097;-87
2020/12/10 03:16:04;;;;;;;2.03;1.83;;;1.90;98.30;;;;;;4099956;28;20523;-86
2020/12/10 03:18:05;;;;;;;2.50;1.30;;;1.80;98.50;;;;;;4097469;28;20058;-87
2020/12/10 03:20:07;;;;;;;1.80;1.70;;;1.70;98.40;;;;;;4086087;29;20138;-87
2020/12/10 03:22:11;;;;;;;6.80;3.28;;;1.70;98.50;;;;;;4086054;28;20058;-87
2020/12/10 03:24:12;;;;;;;2.25;1.85;;;1.60;98.70;;;;;;4102479;28;20157;-89
2020/12/10 03:26:14;;;;;;;3.05;1.92;;;1.50;98.70;;;;;;4101844;28;20551;-90
2020/12/10 03:28:15;;;;;;;8.38;2.50;;;1.50;98.90;;;;;;4101842;28;20053;-86
2020/12/10 03:30:16;;;;;;;0.73;0.73;;;1.50;98.80;;;;;;4098470;28;20051;-87
2020/12/10 03:32:18;;;;;;;5.75;1.70;;;1.50;98.60;;;;;;4091437;28;20470;-87
2020/12/10 03:34:21;;;;;;;2.67;1.98;;;1.50;98.60;;;;;;4105211;28;20050;-87
2020/12/10 03:36:23;;;;;;;2.70;1.52;;;1.50;98.40;;;;;;4075075;29;20052;-87
2020/12/10 03:38:26;;;;;;;2.75;2.55;;;1.50;98.60;;;;;;4124720;28;20114;-86
2020/12/10 03:40:42;;;;;;;3.15;1.92;;;1.50;98.60;;;;;;4131841;28;20573;-88
2020/12/10 03:42:43;;;;;;;11.85;2.53;;;1.40;98.80;;;;;;4087088;29;20526;-88
2020/12/10 03:44:44;;;;;;;2.40;1.83;;;1.30;99.10;;;;;;4097159;29;20627;-88
2020/12/10 03:46:46;;;;;;;5.03;3.88;;;1.30;99.20;;;;;;4090675;29;20051;-88
2020/12/10 03:48:47;;;;;;;5.65;2.83;;;1.40;98.70;;;;;;4102712;28;20054;-88
2020/12/10 03:50:48;;;;;;;3.90;2.45;;;1.40;98.40;;;;;;4086624;29;20524;-87
2020/12/10 03:52:50;;;;;;;1.15;1.05;;;1.50;98.30;;;;;;4073883;29;20127;-88
2020/12/10 03:54:52;;;;;;;4.72;2.08;;;1.40;98.40;;;;;;4117941;28;20067;-87
2020/12/10 03:56:53;;;;;;;2.25;1.98;;;1.40;98.40;;;;;;4106139;28;20061;-88
2020/12/10 03:58:54;;;;;;;3.75;2.17;;;1.40;98.40;;;;;;4102159;28;20055;-88
2020/12/10 04:00:56;;;;;;;1.48;1.35;;;1.40;98.60;;;;;;4118179;28;20062;-87
2020/12/10 04:02:57;;;;;;;2.17;2.08;;;1.40;98.40;;;;;;4086459;29;20090;-88
2020/12/10 04:04:59;;;;;;;1.55;1.23;;;1.40;98.30;;;;;;4113594;28;20043;-88
2020/12/10 04:07:00;;;;;;;10.82;2.33;;;1.40;98.30;;;;;;4086277;29;20093;-88
2020/12/10 04:09:01;;;;;;;3.25;1.88;;;1.30;98.60;;;;;;4126315;28;20062;-88
2020/12/10 04:11:03;;;;;;;1.67;1.25;;;1.30;98.80;;;;;;4120262;28;20111;-89
2020/12/10 04:13:04;;;;;;;2.50;1.60;;;1.20;99.10;;;;;;4117216;28;20059;-88
2020/12/10 04:15:07;;;;;;;1.02;1.02;;;1.20;99.00;;;;;;4072066;29;20587;-88
2020/12/10 04:17:08;;;;;;;1.42;1.17;;;1.20;98.80;;;;;;4100939;28;20057;-88
2020/12/10 04:19:09;;;;;;;3.47;1.90;;;1.30;98.60;;;;;;4131246;28;20057;-87
2020/12/10 04:21:12;;;;;;;3.22;2.45;;;1.30;98.40;;;;;;4099859;28;20130;-88
2020/12/10 04:23:13;;;;;;;5.13;2.00;;;1.30;98.40;;;;;;4092127;28;20055;-88
2020/12/10 04:25:14;;;;;;;7.97;2.25;;;1.30;98.70;;;;;;4103110;28;20058;-88
2020/12/10 04:27:16;;;;;;;1.55;1.45;;;1.20;98.70;;;;;;4080264;29;20523;-88
2020/12/10 04:29:17;;;;;;;3.72;2.28;;;1.30;98.40;;;;;;4081972;29;20056;-87
2020/12/10 04:31:21;;;;;;;1.77;1.48;;;1.20;98.40;;;;;;4116826;28;20054;-87
2020/12/10 04:33:22;;;;;;;5.78;2.47;;;1.30;98.30;;;;;;4085648;29;20091;-87
2020/12/10 04:35:24;;;;;;;5.18;1.23;;;1.30;98.50;;;;;;4093336;29;20515;-87
2020/12/10 04:37:27;;;;;;;3.40;2.92;;;1.20;98.50;;;;;;4107617;28;20446;-87
2020/12/10 04:39:29;;;;;;;3.83;2.10;;;1.10;98.60;;;;;;4117727;28;20050;-87
2020/12/10 04:41:34;;;;;;;2.22;1.13;;;1.10;98.70;;;;;;4108328;28;20082;-87
2020/12/10 04:43:36;;;;;;;3.50;1.65;;;1.00;99.00;;;;;;4100130;28;20051;-87
2020/12/10 04:45:37;;;;;;;1.70;1.60;;;1.00;98.90;;;;;;4087846;29;20055;-87
2020/12/10 04:47:38;;;;;;;3.33;2.30;;;0.90;99.20;;;;;;4110849;28;20065;-87
2020/12/10 04:49:40;;;;;;;1.55;1.35;;;0.80;99.30;;;;;;4116586;28;20060;-87
2020/12/10 04:51:42;;;;;;;2.20;2.00;;;0.80;99.30;;;;;;4102904;28;20450;-87
2020/12/10 04:53:43;;;;;;;4.18;1.60;;;0.70;99.60;;;;;;4100592;28;20043;-88
2020/12/10 04:55:44;;;;;;;4.03;2.58;;;0.70;99.20;;;;;;4100121;28;20066;-88
2020/12/10 04:57:46;;;;;;;6.25;3.90;;;0.80;99.00;;;;;;4085415;29;20048;-87
2020/12/10 04:59:47;;;;;;;6.93;3.22;;;0.80;98.90;;;;;;4100871;29;20051;-87
2020/12/10 05:01:48;;;;;;;1.80;1.70;;;0.70;99.10;;;;;;4084007;29;20079;-87
2020/12/10 05:03:50;;;;;;;2.47;2.15;;;0.70;99.20;;;;;;4101153;28;20062;-87
2020/12/10 05:05:51;;;;;;;1.35;1.33;;;0.60;99.30;;;;;;4099486;28;20054;-88
2020/12/10 05:07:54;;;;;;;3.63;2.78;;;0.50;99.60;;;;;;4116222;28;20049;-87
2020/12/10 05:09:58;;;;;;;6.22;3.10;;;0.50;99.60;;;;;;4115651;28;20110;-87
2020/12/10 05:11:59;;;;;;;1.10;0.85;;;0.50;99.30;;;;;;4088053;29;20067;-87
2020/12/10 05:14:01;;;;;;;2.67;1.40;;;0.50;99.30;;;;;;4096482;29;20051;-87
2020/12/10 05:16:03;;;;;;;1.67;1.50;;;0.50;99.60;;;;;;4115229;28;20059;-88
2020/12/10 05:18:08;;;;;;;3.45;3.15;;;0.40;99.50;;;;;;4089318;28;20582;-88
2020/12/10 05:20:09;;;;;;;;;;;0.50;99.30;;;;;;4090009;28;20051;-87
2020/12/10 05:22:11;;;;;;;1.70;1.60;;;0.50;99.40;;;;;;4130213;28;20393;-89
2020/12/10 05:24:21;;;;;;;2.65;2.38;;;0.40;99.50;;;;;;4090815;28;20070;-88
2020/12/10 05:26:22;;;;;;;5.32;1.67;;;0.40;99.50;;;;;;4097048;28;20135;-88
2020/12/10 05:28:25;;;;;;;3.67;3.40;;;0.40;99.60;;;;;;4101408;28;20050;-88
2020/12/10 05:30:26;;;;;;;1.67;1.60;;;0.40;99.80;;;;;;4116522;28;20089;-88
2020/12/10 05:32:38;;;;;;;4.47;4.05;;;0.40;99.70;;;;;;4099251;28;20385;-88
2020/12/10 05:34:40;;;;;;;2.38;2.17;;;0.40;99.70;;;;;;4099854;28;20090;-88
2020/12/10 05:36:42;;;;;;;2.03;1.90;;;0.40;99.70;;;;;;4086733;29;20150;-88
2020/12/10 05:39:11;;;;;;;3.67;1.65;;;0.40;99.60;;;;;;4076186;29;20086;-88
2020/12/10 05:41:20;;;;;;;4.68;2.75;;;0.40;99.60;;;;;;4077315;29;20099;-87
2020/12/10 05:43:21;;;;;;;6.72;3.35;;;0.40;99.30;;;;;;4072341;29;20051;-86
2020/12/10 05:45:23;;;;;;;4.35;2.25;;;0.40;99.30;;;;;;4069490;29;20063;-88
2020/12/10 05:47:31;;;;;;;2.75;2.00;;;0.40;99.30;;;;;;4069101;29;20083;-87
2020/12/10 05:49:36;;;;;;;3.83;2.67;;;0.40;99.70;;;;;;4068421;29;20059;-88
2020/12/10 05:51:47;;;;;;;0.90;0.80;;;0.30;99.80;;;;;;4055883;29;20068;-87
2020/12/10 05:53:49;;;;;;;4.57;3.05;;;0.30;99.80;;;;;;4105106;28;20054;-88
2020/12/10 05:55:50;;;;;;;4.15;2.20;;;0.30;99.80;;;;;;4080141;29;20059;-88
2020/12/10 05:57:51;;;;;;;2.47;1.70;;;0.30;99.90;;;;;;4068023;29;20052;-88
2020/12/10 05:59:53;;;;;;;1.95;1.77;;;0.30;99.90;;;;;;4066820;29;20058;-88
2020/12/10 06:01:58;;;;;;;3.63;2.30;;;0.30;99.70;;;;;;4075748;29;20064;-88
2020/12/10 06:04:00;;;;;;;;;;;0.30;99.60;;;;;;4099690;28;20055;-88
2020/12/10 06:06:02;;;;;;;2.22;2.03;;;0.30;99.70;;;;;;4093954;28;20025;-88
2020/12/10 06:08:04;;;;;;;16.05;5.85;;;0.30;99.70;;;;;;4082191;29;20059;-88
2020/12/10 06:10:06;;;;;;;5.18;3.08;;;0.20;99.70;;;;;;4097802;29;20078;-88
2020/12/10 06:12:08;;;;;;;2.00;1.88;;;0.20;99.90;;;;;;4067918;29;20048;-88
2020/12/10 06:14:09;;;;;;;3.63;3.33;;;0.30;99.70;;;;;;4081610;29;20060;-88
2020/12/10 06:16:17;;;;;;;4.38;2.08;;;0.20;99.60;;;;;;4077800;29;20064;-88
2020/12/10 06:18:18;;;;;;;4.78;2.55;;;0.20;99.60;;;;;;4084264;29;20059;-88
2020/12/10 06:20:34;;;;;;;4.90;2.28;;;0.20;99.60;;;;;;4080437;29;20052;-88
2020/12/10 06:22:36;;;;;;;1.83;1.70;;;0.20;99.70;;;;;;4069502;29;20052;-90
2020/12/10 06:24:38;;;;;;;1.65;1.60;;;0.10;99.80;;;;;;4071409;29;20060;-88
2020/12/10 06:26:39;;;;;;;7.93;2.25;;;0.20;99.70;;;;;;4092024;29;20138;-88
2020/12/10 06:28:40;;;;;;;2.65;2.45;;;0.20;99.60;;;;;;4067004;29;20052;-88
2020/12/10 06:30:42;;;;;;;8.98;3.63;;;0.20;99.50;;;;;;4054908;29;20052;-88
2020/12/10 06:32:46;;;;;;;2.50;1.80;;;0.20;99.80;;;;;;4108625;28;20050;-88
2020/12/10 06:34:55;;;;;;;3.13;2.55;;;0.10;99.90;;;;;;4087161;28;20047;-89
2020/12/10 06:37:14;;;;;;;1.50;1.42;;;0.10;99.90;;;;;;4087763;28;20067;-88
2020/12/10 06:39:16;;;;;;;2.60;2.40;;;0.10;99.90;;;;;;4119727;28;20057;-90
2020/12/10 06:41:18;;;;;;;6.72;3.20;;;0.10;99.90;;;;;;4094024;28;20086;-88
2020/12/10 06:43:19;;;;;;;3.67;3.45;;;0.10;99.90;;;;;;4112250;28;20503;-88
2020/12/10 06:45:27;;;;;;;2.95;1.95;;;0.10;99.90;;;;;;4093287;28;20062;-88
2020/12/10 06:47:40;;;;;;;4.32;3.70;;;0.10;99.80;;;;;;4094687;28;20059;-88
2020/12/10 06:49:43;;;;;;;2.45;1.95;;;0.10;99.90;;;;;;4089394;28;20055;-88
2020/12/10 06:51:45;;;;;;;4.10;2.47;;;0.10;99.90;;;;;;4083576;29;20052;-89
2020/12/10 06:54:07;;;;;;;1.98;1.75;;;0.10;99.90;;;;;;4078094;29;20074;-93
2020/12/10 06:56:11;;;;;;;5.13;3.42;;;0.10;99.90;;;;;;4110516;28;20053;-93
2020/12/10 06:58:14;;;;;;;0.82;0.80;;;0.10;99.90;;;;;;4101161;28;20090;-94
2020/12/10 07:00:42;;;;;;;1.92;1.58;;;0.10;99.90;;;;;;4089754;28;20052;-93
2020/12/10 07:03:06;;;;;;;2.25;2.15;;;0.10;99.80;;;;;;4097538;28;20190;-92
2020/12/10 07:05:07;;;;;;;3.38;2.67;;;0.20;99.20;;;;;;4104536;28;20077;-94
2020/12/10 07:07:15;;;;;;;1.95;1.85;;;0.10;99.30;;;;;;4101407;28;20057;-94
2020/12/10 07:09:16;;;;;;;3.25;2.35;;;0.10;99.40;;;;;;4112617;28;20046;-90
2020/12/10 07:11:30;;;;;;;0.85;0.85;;;0.10;99.50;;;;;;4113113;28;20061;-92
2020/12/10 07:13:32;;;;;;;6.72;3.45;;;0.10;99.70;;;;;;4096724;29;20044;-94
2020/12/10 07:15:33;;;;;;;4.63;3.03;;;0.10;99.30;;;;;;4103682;28;20059;-95
2020/12/10 07:17:35;;;;;;;3.35;3.05;;;0.10;99.40;;;;;;4129586;28;20076;-95
2020/12/10 07:19:36;;;;;;;2.58;1.73;;;0.00;99.60;;;;;;4111848;28;20066;-93
2020/12/10 07:21:38;;;;;;;5.68;1.65;;;0.10;99.70;;;;;;4103826;28;20055;-96
2020/12/10 07:23:39;;;;;;;3.22;2.42;;;0.10;99.60;;;;;;4104874;28;20111;-94
2020/12/10 07:25:40;;;;;;;4.95;4.22;;;0.10;99.20;;;;;;4103182;28;20058;-93
2020/12/10 07:27:45;;;;;;;1.50;1.40;;;0.10;98.80;;;;;;4115092;28;20487;-90
2020/12/10 07:29:50;;;;;;;1.58;1.48;;;0.20;98.90;;;;;;4098602;28;20062;-91
2020/12/10 07:31:51;;;;;;;3.38;2.40;;;0.10;99.20;;;;;;4086537;28;20404;-87
2020/12/10 07:33:58;;;;;;;6.00;4.07;;;0.20;99.00;;;;;;4115318;28;20510;-93
2020/12/10 07:36:06;;;;;;;2.95;2.75;;;0.20;99.00;;;;;;4090840;28;20062;-93
2020/12/10 07:38:12;;;;;;;2.92;2.30;;;0.20;99.00;;;;;;4100646;28;20065;-93
2020/12/10 07:40:18;;;;;;;1.52;1.10;;;0.20;99.00;;;;;;4115663;28;20050;-92
2020/12/10 07:42:20;;;;;;;1.63;1.17;;;0.30;99.00;;;;;;4101408;28;20059;-91
2020/12/10 07:44:39;;;;;;;1.58;1.30;;;0.30;99.20;;;;;;4113872;28;20122;-90
2020/12/10 07:46:40;;;;;;;1.67;1.48;;;0.30;99.10;;;;;;4114200;28;20581;-89
2020/12/10 07:48:42;;;;;;;2.28;1.38;;;0.30;99.50;;;;;;4112837;28;20392;-89
2020/12/10 07:50:45;;;;;;;2.83;1.60;;;0.30;99.40;;;;;;4107926;28;20094;-89
2020/12/10 07:52:47;;;;;;;4.15;2.88;;;0.30;99.40;;;;;;4086101;28;20055;-88
2020/12/10 07:54:49;;;;;;;1.23;1.23;;;0.30;99.70;;;;;;4114874;28;20051;-87
2020/12/10 07:56:50;;;;;;;12.27;2.65;;;0.30;99.90;;;;;;4107667;28;20050;-84
2020/12/10 07:59:13;;;;;;;3.72;3.38;;;0.20;99.60;;;;;;4116176;28;20111;-88
2020/12/10 08:01:15;;;;;;;2.67;2.28;;;0.30;99.60;;;;;;4090894;28;20062;-88
2020/12/10 08:03:26;;;;;;;4.63;2.65;;;0.30;99.60;;;;;;4087309;29;20086;-89
2020/12/10 08:05:27;;;;;;;2.80;2.10;;;0.20;99.60;;;;;;4119926;28;20049;-90
2020/12/10 08:07:29;;;;;;;2.63;2.42;;;0.20;99.70;;;;;;4102837;28;20047;-90
2020/12/10 08:09:31;;;;;;;3.22;2.20;;;0.20;99.80;;;;;;4119270;28;20047;-90
2020/12/10 08:11:32;;;;;;;4.45;4.10;;;0.20;99.80;;;;;;4117261;28;20055;-90
2020/12/10 08:13:34;;;;;;;5.80;2.67;;;0.20;99.80;;;;;;4101802;28;20059;-91
2020/12/10 08:15:36;;;;;;;5.45;3.65;;;0.20;99.90;;;;;;4131709;28;20052;-90
2020/12/10 08:17:37;;;;;;;3.53;3.28;;;0.20;99.90;;;;;;4101727;28;20051;-89
2020/12/10 08:19:39;;;;;;;2.35;2.20;;;0.20;99.90;;;;;;4102000;28;20051;-91
2020/12/10 08:21:44;;;;;;;5.50;2.58;;;0.30;99.90;;;;;;4134003;28;20101;-88
2020/12/10 08:23:45;;;;;;;5.47;4.35;;;0.20;99.70;;;;;;4101680;28;20427;-90
2020/12/10 08:25:48;;;;;;;3.05;2.45;;;0.30;99.90;;;;;;4102322;28;20090;-91
2020/12/10 08:27:50;;;;;;;4.80;4.45;;;0.30;99.90;;;;;;4104524;28;20620;-90
2020/12/10 08:30:17;;;;;;;3.83;2.13;;;0.30;99.70;;;;;;4119734;28;20061;-90
2020/12/10 08:32:18;;;;;;;1.40;1.30;;;0.40;99.30;;;;;;4116630;28;20065;-90
2020/12/10 08:34:20;;;;;;;1.38;1.30;;;0.50;99.40;;;;;;4133129;28;20104;-91
2020/12/10 08:36:30;;;;;;;1.23;1.17;;;0.50;99.40;;;;;;4117703;28;20063;-90
2020/12/10 08:38:32;;;;;;;2.60;2.13;;;0.50;99.60;;;;;;4117963;28;20101;-91
2020/12/10 08:40:33;;;;;;;2.35;2.08;;;0.50;99.60;;;;;;4117495;28;20506;-90
2020/12/10 08:42:36;;;;;;;9.23;2.75;;;0.60;99.40;;;;;;4118709;28;20082;-88
2020/12/10 08:44:44;;;;;;;3.80;3.45;;;0.70;99.50;;;;;;4100898;29;20065;-90
2020/12/10 08:47:01;;;;;;;5.20;2.80;;;0.70;99.30;;;;;;4131548;28;20050;-89
2020/12/10 08:49:20;;;;;;;2.15;1.95;;;0.80;99.40;;;;;;4117150;28;20043;-89
2020/12/10 08:51:21;;;;;;;3.92;2.20;;;0.80;99.30;;;;;;4100788;28;20149;-89
2020/12/10 08:53:23;;;;;;;2.15;1.63;;;0.90;99.10;;;;;;4101410;28;20062;-90
2020/12/10 08:55:29;;;;;;;2.72;1.52;;;0.90;99.30;;;;;;4100872;28;20047;-91
2020/12/10 08:57:46;;;;;;;4.28;3.13;;;1.00;99.10;;;;;;4098066;28;20408;-91
2020/12/10 08:59:49;;;;;;;1.98;1.88;;;1.00;99.10;;;;;;4116265;28;20054;-89
2020/12/10 09:01:51;;;;;;;3.30;1.48;;;1.10;98.90;;;;;;4117036;28;20043;-90
2020/12/10 09:03:52;;;;;;;3.83;1.83;;;1.20;98.90;;;;;;4117093;28;20047;-89
2020/12/10 09:05:53;;;;;;;3.08;1.83;;;1.20;98.70;;;;;;4101298;28;20055;-91
2020/12/10 09:07:54;;;;;;;2.22;2.03;;;1.20;98.90;;;;;;4117619;28;20141;-90
2020/12/10 09:09:56;;;;;;;3.40;2.20;;;1.20;98.40;;;;;;4118548;28;20047;-89
2020/12/10 09:11:58;;;;;;;2.80;2.47;;;1.20;98.80;;;;;;4117331;28;20053;-90
2020/12/10 09:14:01;;;;;;;3.90;2.78;;;1.20;98.80;;;;;;4100331;28;20137;-92
2020/12/10 09:16:06;;;;;;;2.97;2.55;;;1.30;98.70;;;;;;4124184;28;20400;-90
2020/12/10 09:18:08;;;;;;;2.58;1.95;;;1.40;98.70;;;;;;4128202;28;20102;-90
2020/12/10 09:20:11;;;;;;;4.45;2.05;;;1.40;98.60;;;;;;4129000;28;20445;-91
2020/12/10 09:22:12;;;;;;;2.83;2.30;;;1.40;98.60;;;;;;4124933;28;20050;-91
2020/12/10 09:24:15;;;;;;;1.98;1.77;;;1.40;98.50;;;;;;4118474;28;20047;-88
2020/12/10 09:26:18;;;;;;;2.70;1.65;;;1.40;98.50;;;;;;4116804;28;20051;-91
2020/12/10 09:28:19;;;;;;;11.02;2.58;;;1.40;98.50;;;;;;4100788;28;20063;-90
2020/12/10 09:30:20;;;;;;;1.88;1.77;;;1.50;98.70;;;;;;4101739;28;20055;-89
2020/12/10 09:32:22;;;;;;;3.03;1.77;;;1.50;98.80;;;;;;4100627;28;20059;-90
2020/12/10 09:34:24;;;;;;;3.30;2.08;;;1.60;98.60;;;;;;4117713;28;20084;-91
2020/12/10 09:36:25;;;;;;;4.22;2.42;;;1.60;98.60;;;;;;4118485;28;20046;-89
2020/12/10 09:38:30;;;;;;;3.78;2.05;;;1.70;98.60;;;;;;4120145;28;20081;-91
2020/12/10 09:40:33;;;;;;;3.85;2.97;;;1.70;98.50;;;;;;4119644;28;20057;-90
2020/12/10 09:42:57;;;;;;;1.83;1.52;;;1.70;98.40;;;;;;4120142;28;20125;-90
2020/12/10 09:44:58;;;;;;;6.60;2.58;;;1.80;98.30;;;;;;4115741;28;20055;-89
2020/12/10 09:47:09;;;;;;;1.98;1.70;;;1.90;98.00;;;;;;4100100;28;20055;-90
2020/12/10 09:49:11;;;;;;;2.83;1.73;;;1.80;97.90;;;;;;4115998;28;20442;-89
2020/12/10 09:51:13;;;;;;;3.63;1.23;;;1.90;98.20;;;;;;4100356;28;20427;-86
2020/12/10 09:58:15;;;;;;;2.20;1.98;;;2.00;97.80;;;;;;4102605;28;20527;-91
2020/12/10 10:00:16;;;;;;;5.60;2.58;;;2.00;98.10;;;;;;4116214;28;20054;-91
2020/12/10 10:02:18;;;;;;;4.43;2.88;;;2.00;97.70;;;;;;4099998;28;20516;-89
2020/12/10 10:04:19;;;;;;;4.13;1.88;;;2.00;97.50;;;;;;4116558;28;20047;-90
2020/12/10 10:06:21;;;;;;;5.18;3.05;;;2.10;97.60;;;;;;4116321;28;20054;-90
2020/12/10 10:08:24;;;;;;;4.25;1.70;;;2.10;97.20;;;;;;4100866;28;20595;-91
2020/12/10 10:10:25;;;;;;;5.18;2.33;;;2.20;97.30;;;;;;4101175;28;20050;-88
2020/12/10 10:12:27;;;;;;;1.60;0.90;;;2.20;96.80;;;;;;4113312;28;20047;-90
2020/12/10 10:14:28;;;;;;;3.38;2.92;;;2.20;96.50;;;;;;4099733;28;20050;-90
2020/12/10 10:16:30;;;;;;;1.70;1.58;;;2.20;96.70;;;;;;4116136;28;20053;-91
2020/12/10 10:18:32;;;;;;;4.00;1.77;;;2.40;96.80;;;;;;4115573;28;20042;-90
2020/12/10 10:20:33;;;;;;;3.05;1.75;;;2.40;96.60;;;;;;4115445;28;20534;-88
2020/12/10 10:22:38;;;;;;;3.25;1.95;;;2.50;96.50;;;;;;4116442;28;20065;-91
2020/12/10 10:24:40;;;;;;;2.47;1.40;;;2.50;96.50;;;;;;4116119;28;20054;-90
2020/12/10 10:26:41;;;;;;;2.85;0.95;;;2.50;95.90;;;;;;4115718;28;20050;-90
2020/12/10 10:28:45;;;;;;;3.28;2.00;;;2.60;96.50;;;;;;4099525;28;20047;-90
2020/12/10 10:30:55;;;;;;;1.38;1.27;;;2.60;96.40;;;;;;4115694;28;20502;-91
2020/12/10 10:32:57;;;;;;;1.55;1.45;;;2.70;96.20;;;;;;4115222;28;20050;-90
2020/12/10 10:34:59;;;;;;;2.60;2.38;;;2.70;95.70;;;;;;4115478;28;20050;-90
2020/12/10 10:37:00;;;;;;;4.43;2.25;;;2.80;95.70;;;;;;4120991;28;20701;-92
2020/12/10 10:39:02;;;;;;;2.90;2.05;;;2.90;95.90;;;;;;4132038;28;20060;-90
2020/12/10 10:41:03;;;;;;;1.98;1.20;;;2.90;95.20;;;;;;4117749;28;20537;-89
2020/12/10 10:43:05;;;;;;;3.05;2.10;;;2.90;95.00;;;;;;4115449;28;20607;-90
2020/12/10 10:45:07;;;;;;;0.73;0.47;;;2.90;94.90;;;;;;4100005;28;20516;-90
2020/12/10 10:47:10;;;;;;;2.50;1.45;;;3.00;94.80;;;;;;4131679;28;20429;-90
2020/12/10 10:49:25;;;;;;;6.50;1.30;;;3.00;94.60;;;;;;4117486;28;20097;-90
2020/12/10 10:51:32;;;;;;;0.57;0.52;;;3.00;94.20;;;;;;4118319;28;20129;-88
2020/12/10 10:53:34;;;;;;;5.20;2.53;;;3.00;94.30;;;;;;4110276;28;20059;-91
2020/12/10 10:55:39;;;;;;;3.30;1.27;;;3.00;94.50;;;;;;4118407;28;20493;-88